createdAt,value
2024-03-01T00:03:10.930Z,27.77
2024-03-01T00:08:12.333Z,31.05
2024-03-01T00:13:13.772Z,35.85
2024-03-01T00:18:15.245Z,29.90
2024-03-01T00:23:16.676Z,33.28
2024-03-01T00:28:18.118Z,35.47
2024-03-01T00:33:19.535Z,35.53
2024-03-01T00:38:21.272Z,34.50
2024-03-01T00:43:22.697Z,33.47
2024-03-01T00:48:24.765Z,31.70
2024-03-01T00:53:26.179Z,33.83
2024-03-01T00:58:27.784Z,40.58
2024-03-01T01:03:29.218Z,32.03
2024-03-01T01:08:30.617Z,32.05
2024-03-01T01:13:32.155Z,27.42
2024-03-01T01:18:33.618Z,29.00
2024-03-01T01:23:35.007Z,30.70
2024-03-01T01:28:36.449Z,31.73
2024-03-01T01:33:37.866Z,31.48
2024-03-01T01:38:39.223Z,29.77
2024-03-01T01:43:44.026Z,26.50
2024-03-01T01:48:46.295Z,35.88
2024-03-01T01:53:48.533Z,26.55
2024-03-01T01:58:51.183Z,29.70
2024-03-01T02:03:53.086Z,60.42
2024-03-01T02:08:54.562Z,49.28
2024-03-01T02:13:56.525Z,24.75
2024-03-01T02:18:58.155Z,25.55
2024-03-01T02:23:59.648Z,26.60
2024-03-01T02:29:02.404Z,30.13
2024-03-01T02:34:03.848Z,30.83
2024-03-01T02:39:17.733Z,31.90
2024-03-01T02:44:19.110Z,27.20
2024-03-01T02:49:20.668Z,33.05
2024-03-01T02:54:22.109Z,30.05
2024-03-01T02:59:23.626Z,36.10
2024-03-01T03:04:25.072Z,21.98
2024-03-01T03:09:26.539Z,26.23
2024-03-01T03:14:28.014Z,25.08
2024-03-01T03:19:30.604Z,28.98
2024-03-01T03:24:32.040Z,30.30
2024-03-01T03:29:34.489Z,30.40
2024-03-01T03:34:35.930Z,31.38
2024-03-01T03:39:37.379Z,27.23
2024-03-01T03:44:38.783Z,27.85
2024-03-01T03:49:40.178Z,28.23
2024-03-01T03:54:41.553Z,31.92
2024-03-01T03:59:42.944Z,28.27
2024-03-01T04:04:44.323Z,29.55
2024-03-01T04:09:45.712Z,24.80
2024-03-01T04:14:47.165Z,26.77
2024-03-01T04:19:48.555Z,24.65
2024-03-01T04:24:50.739Z,23.63
2024-03-01T04:29:52.229Z,30.23
2024-03-01T04:34:55.472Z,25.33
2024-03-01T04:39:56.959Z,26.15
2024-03-01T04:44:58.323Z,26.63
2024-03-01T04:49:59.968Z,24.58
2024-03-01T04:55:01.416Z,25.90
2024-03-01T05:00:04.351Z,31.52
2024-03-01T05:05:07.016Z,28.83
2024-03-01T05:10:12.677Z,25.45
2024-03-01T05:15:16.509Z,28.13
2024-03-01T05:20:18.149Z,31.45
2024-03-01T05:25:20.401Z,27.27
2024-03-01T05:30:35.995Z,28.45
2024-03-01T05:35:45.166Z,26.25
2024-03-01T05:40:52.380Z,35.20
2024-03-01T05:51:00.032Z,24.80
2024-03-01T05:56:01.490Z,29.15
2024-03-01T06:01:05.398Z,25.25
2024-03-01T06:06:08.550Z,24.27
2024-03-01T06:11:10.192Z,29.40
2024-03-01T06:16:11.678Z,30.23
2024-03-01T06:21:21.593Z,26.83
2024-03-01T06:26:23.535Z,26.70
2024-03-01T06:31:25.073Z,33.33
2024-03-01T06:36:27.271Z,35.25
2024-03-01T06:41:28.669Z,30.92
2024-03-01T06:46:30.921Z,32.53
2024-03-01T06:51:32.572Z,30.75
2024-03-01T06:56:34.073Z,32.72
2024-03-01T07:01:36.084Z,28.92
2024-03-01T07:06:37.749Z,25.80
2024-03-01T07:11:39.215Z,28.15
2024-03-01T07:16:41.132Z,36.15
2024-03-01T07:21:42.560Z,36.95
2024-03-01T07:26:44.128Z,25.73
2024-03-01T07:31:45.617Z,30.00
2024-03-01T07:36:47.050Z,32.08
2024-03-01T07:41:48.575Z,33.78
2024-03-01T07:46:57.057Z,39.08
2024-03-01T07:51:58.807Z,39.53
2024-03-01T07:57:00.372Z,36.65
2024-03-01T08:02:02.252Z,35.95
2024-03-01T08:07:03.946Z,32.78
2024-03-01T08:12:06.884Z,33.75
2024-03-01T08:17:09.276Z,36.40
2024-03-01T08:22:16.070Z,42.28
2024-03-01T08:27:25.409Z,33.23
2024-03-01T08:32:43.434Z,41.20
2024-03-01T08:37:45.030Z,33.80
2024-03-01T08:42:46.451Z,34.13
2024-03-01T08:48:00.175Z,38.33
2024-03-01T08:53:02.030Z,36.40
2024-03-01T08:58:03.710Z,36.08
2024-03-01T09:03:11.352Z,36.75
2024-03-01T09:08:23.571Z,37.20
2024-03-01T09:13:26.965Z,36.60
2024-03-01T09:18:48.185Z,39.08
2024-03-01T09:23:49.934Z,35.60
2024-03-01T09:28:51.707Z,41.03
2024-03-01T09:33:53.274Z,37.90
2024-03-01T09:39:05.569Z,37.28
2024-03-01T09:44:23.997Z,39.30
2024-03-01T09:50:14.814Z,31.77
2024-03-01T09:55:47.254Z,33.58
2024-03-01T10:01:12.277Z,30.17
2024-03-01T10:06:28.461Z,31.55
2024-03-01T10:11:38.740Z,28.33
2024-03-01T10:17:04.855Z,28.00
2024-03-01T10:22:21.404Z,26.15
2024-03-01T10:27:40.099Z,23.02
2024-03-01T10:33:04.956Z,22.80
2024-03-01T10:38:32.474Z,22.38
2024-03-01T10:43:45.774Z,27.00
2024-03-01T10:49:03.423Z,24.85
2024-03-01T10:54:08.337Z,25.38
2024-03-01T10:59:19.486Z,24.00
2024-03-01T11:04:29.359Z,22.38
2024-03-01T11:09:55.601Z,27.05
2024-03-01T11:15:08.978Z,25.05
2024-03-01T11:20:17.260Z,24.05
2024-03-01T11:25:22.312Z,21.33
2024-03-01T11:30:28.567Z,27.27
2024-03-01T11:35:34.200Z,22.35
2024-03-01T11:41:10.436Z,24.27
2024-03-01T11:46:17.938Z,20.20
2024-03-01T11:57:06.056Z,16.48
2024-03-01T12:02:34.613Z,19.33
2024-03-01T12:08:07.441Z,16.63
2024-03-01T12:13:14.647Z,14.88
2024-03-01T12:18:30.363Z,12.63
2024-03-01T12:23:53.054Z,13.63
2024-03-01T12:29:19.349Z,13.60
2024-03-01T12:34:38.431Z,15.90
2024-03-01T12:39:45.875Z,16.25
2024-03-01T12:50:20.473Z,9.48
2024-03-01T12:55:33.099Z,9.85
2024-03-01T13:00:53.675Z,7.85
2024-03-01T13:05:55.963Z,7.00
2024-03-01T13:11:02.475Z,4.00
2024-03-01T13:16:19.690Z,3.92
2024-03-01T13:21:30.474Z,3.40
2024-03-01T13:26:38.955Z,2.03
2024-03-01T13:32:00.358Z,2.00
2024-03-01T13:37:10.471Z,1.08
2024-03-01T13:42:39.205Z,1.10
2024-03-01T13:47:47.707Z,0.98
2024-03-01T13:52:49.526Z,0.90
2024-03-01T13:57:51.605Z,0.70
2024-03-01T14:02:53.598Z,1.33
2024-03-01T14:07:58.571Z,0.52
2024-03-01T14:13:01.148Z,0.90
2024-03-01T14:18:02.585Z,0.70
2024-03-01T14:23:05.179Z,1.33
2024-03-01T14:28:07.952Z,0.73
2024-03-01T14:33:11.180Z,0.57
2024-03-01T14:38:16.433Z,0.60
2024-03-01T14:43:17.900Z,0.40
2024-03-01T14:48:34.068Z,0.45
2024-03-01T14:53:48.240Z,0.75
2024-03-01T14:58:50.858Z,0.60
2024-03-01T15:03:52.316Z,0.50
2024-03-01T15:08:53.708Z,0.75
2024-03-01T15:13:55.335Z,0.80
2024-03-01T15:18:58.253Z,0.98
2024-03-01T15:24:02.530Z,1.15
2024-03-01T15:29:05.865Z,0.68
2024-03-01T15:34:07.943Z,1.77
2024-03-01T15:39:11.301Z,1.45
2024-03-01T15:44:12.715Z,3.22
2024-03-01T15:49:14.276Z,4.00
2024-03-01T15:54:15.741Z,0.77
2024-03-01T15:59:17.915Z,1.10
2024-03-01T16:04:20.883Z,1.83
2024-03-01T16:09:22.250Z,1.08
2024-03-01T16:14:23.950Z,3.30
2024-03-01T16:19:25.426Z,1.52
2024-03-01T16:24:26.932Z,2.15
2024-03-01T16:29:33.341Z,1.85
2024-03-01T16:34:34.749Z,2.58
2024-03-01T16:39:40.034Z,0.82
2024-03-01T16:44:44.997Z,1.30
2024-03-01T16:49:46.573Z,1.73
2024-03-01T16:54:48.586Z,3.70
2024-03-01T16:59:50.369Z,2.50
2024-03-01T17:04:51.822Z,1.40
2024-03-01T17:09:53.981Z,4.25
2024-03-01T17:14:56.228Z,2.50
2024-03-01T17:19:57.636Z,3.58
2024-03-01T17:24:59.073Z,1.67
2024-03-01T17:30:00.596Z,1.38
2024-03-01T17:35:01.982Z,1.40
2024-03-01T17:40:03.565Z,1.83
2024-03-01T17:45:05.672Z,3.45
2024-03-01T17:50:08.337Z,3.92
2024-03-01T17:55:10.162Z,4.97
2024-03-01T18:00:12.850Z,4.78
2024-03-01T18:05:14.459Z,4.32
2024-03-01T18:10:20.355Z,4.13
2024-03-01T18:15:21.852Z,11.18
2024-03-01T18:20:24.108Z,11.52
2024-03-01T18:25:25.676Z,7.25
2024-03-01T18:30:27.104Z,8.32
2024-03-01T18:35:28.891Z,6.22
2024-03-01T18:40:30.707Z,6.00
2024-03-01T18:45:32.076Z,6.28
2024-03-01T18:50:33.559Z,9.32
2024-03-01T18:55:35.147Z,11.80
2024-03-01T19:00:41.067Z,13.48
2024-03-01T19:05:45.014Z,15.55
2024-03-01T19:10:46.568Z,20.08
2024-03-01T19:15:48.057Z,16.48
2024-03-01T19:20:49.431Z,13.90
2024-03-01T19:25:50.819Z,9.45
2024-03-01T19:30:52.394Z,7.93
2024-03-01T19:35:54.900Z,6.43
2024-03-01T19:40:56.478Z,6.22
2024-03-01T19:45:57.933Z,5.63
2024-03-01T19:50:59.392Z,9.15
2024-03-01T19:56:00.764Z,10.55
2024-03-01T20:01:02.267Z,7.97
2024-03-01T20:06:04.222Z,7.72
2024-03-01T20:11:05.645Z,28.10
2024-03-01T20:16:07.185Z,28.70
2024-03-01T20:21:08.608Z,20.23
2024-03-01T20:26:10.017Z,13.98
2024-03-01T20:31:11.797Z,11.07
2024-03-01T20:36:13.333Z,9.30
2024-03-01T20:41:14.733Z,12.13
2024-03-01T20:46:16.162Z,11.00
2024-03-01T20:51:17.548Z,9.60
2024-03-01T20:56:19.161Z,15.35
2024-03-01T21:01:20.760Z,11.07
2024-03-01T21:06:22.361Z,11.07
2024-03-01T21:11:25.711Z,12.27
2024-03-01T21:16:27.144Z,16.45
2024-03-01T21:21:28.708Z,18.02
2024-03-01T21:26:30.120Z,16.02
2024-03-01T21:31:31.473Z,20.85
2024-03-01T21:36:32.860Z,23.55
2024-03-01T21:41:34.387Z,19.02
2024-03-01T21:46:35.869Z,15.95
2024-03-01T21:51:37.369Z,10.82
2024-03-01T21:56:38.920Z,14.15
2024-03-01T22:01:40.390Z,10.88
2024-03-01T22:06:42.867Z,12.63
2024-03-01T22:11:48.320Z,9.40
2024-03-01T22:16:49.821Z,12.60
2024-03-01T22:21:52.308Z,19.15
2024-03-01T22:26:53.973Z,12.82
2024-03-01T22:31:55.778Z,14.55
2024-03-01T22:36:57.554Z,15.30
2024-03-01T22:41:59.188Z,13.88
2024-03-01T22:47:00.862Z,11.57
2024-03-01T22:52:02.624Z,12.07
2024-03-01T22:57:04.183Z,12.32
2024-03-01T23:02:06.709Z,12.77
2024-03-01T23:07:09.546Z,12.55
2024-03-01T23:12:12.331Z,11.02
2024-03-01T23:17:14.587Z,11.48
2024-03-01T23:22:17.447Z,11.57
2024-03-01T23:27:19.727Z,14.00
2024-03-01T23:32:21.386Z,13.35
2024-03-01T23:37:22.963Z,10.88
2024-03-01T23:42:24.490Z,10.35
2024-03-01T23:47:25.990Z,11.65
2024-03-01T23:52:28.565Z,9.35
2024-03-01T23:57:30.018Z,13.00
